sensor_id;sensor_type;location;lat;lon;timestamp;P1;durP1;ratioP1;P2;durP2;ratioP2
33826;SDS011;20128;45.582;5.298;2023-05-23T00:01:35;24.65;;;17.25;;
33826;SDS011;20128;45.582;5.298;2023-05-23T00:04:02;24.17;;;17.52;;
33826;SDS011;20128;45.582;5.298;2023-05-23T00:06:28;25.88;;;16.88;;
33826;SDS011;20128;45.582;5.298;2023-05-23T00:08:53;22.23;;;17.35;;
33826;SDS011;20128;45.582;5.298;2023-05-23T00:11:20;29.33;;;19.50;;
33826;SDS011;20128;45.582;5.298;2023-05-23T00:13:50;26.30;;;17.73;;
33826;SDS011;20128;45.582;5.298;2023-05-23T00:16:17;26.50;;;18.35;;
33826;SDS011;20128;45.582;5.298;2023-05-23T00:18:42;25.33;;;18.40;;
33826;SDS011;20128;45.582;5.298;2023-05-23T00:21:09;25.60;;;17.83;;
33826;SDS011;20128;45.582;5.298;2023-05-23T00:23:38;29.65;;;19.73;;
33826;SDS011;20128;45.582;5.298;2023-05-23T00:26:09;26.95;;;19.98;;
33826;SDS011;20128;45.582;5.298;2023-05-23T00:28:38;27.90;;;19.48;;
33826;SDS011;20128;45.582;5.298;2023-05-23T00:31:04;34.90;;;21.00;;
33826;SDS011;20128;45.582;5.298;2023-05-23T00:33:30;23.80;;;19.15;;
33826;SDS011;20128;45.582;5.298;2023-05-23T00:35:57;28.25;;;19.75;;
33826;SDS011;20128;45.582;5.298;2023-05-23T00:38:24;33.42;;;20.08;;
33826;SDS011;20128;45.582;5.298;2023-05-23T00:40:50;24.75;;;19.17;;
33826;SDS011;20128;45.582;5.298;2023-05-23T00:43:16;27.42;;;19.55;;
33826;SDS011;20128;45.582;5.298;2023-05-23T00:45:43;27.40;;;19.95;;
33826;SDS011;20128;45.582;5.298;2023-05-23T00:48:09;27.15;;;17.20;;
33826;SDS011;20128;45.582;5.298;2023-05-23T00:50:35;28.95;;;19.90;;
33826;SDS011;20128;45.582;5.298;2023-05-23T00:53:01;28.45;;;20.83;;
33826;SDS011;20128;45.582;5.298;2023-05-23T00:55:28;33.67;;;20.23;;
33826;SDS011;20128;45.582;5.298;2023-05-23T00:57:54;30.20;;;19.13;;
33826;SDS011;20128;45.582;5.298;2023-05-23T01:00:24;25.15;;;18.70;;
33826;SDS011;20128;45.582;5.298;2023-05-23T01:02:50;33.05;;;20.02;;
33826;SDS011;20128;45.582;5.298;2023-05-23T01:05:17;29.85;;;20.80;;
33826;SDS011;20128;45.582;5.298;2023-05-23T01:07:44;30.13;;;21.05;;
33826;SDS011;20128;45.582;5.298;2023-05-23T01:10:11;34.28;;;21.45;;
33826;SDS011;20128;45.582;5.298;2023-05-23T01:15:20;29.00;;;19.77;;
33826;SDS011;20128;45.582;5.298;2023-05-23T01:21:02;30.42;;;20.30;;
33826;SDS011;20128;45.582;5.298;2023-05-23T01:26:32;29.48;;;22.00;;
33826;SDS011;20128;45.582;5.298;2023-05-23T01:29:10;31.75;;;21.33;;
33826;SDS011;20128;45.582;5.298;2023-05-23T01:31:42;36.53;;;23.67;;
33826;SDS011;20128;45.582;5.298;2023-05-23T01:34:11;33.30;;;23.08;;
33826;SDS011;20128;45.582;5.298;2023-05-23T01:36:43;35.60;;;25.35;;
33826;SDS011;20128;45.582;5.298;2023-05-23T01:39:09;33.83;;;23.73;;
33826;SDS011;20128;45.582;5.298;2023-05-23T01:41:36;37.95;;;24.90;;
33826;SDS011;20128;45.582;5.298;2023-05-23T01:44:02;36.22;;;25.65;;
33826;SDS011;20128;45.582;5.298;2023-05-23T01:46:28;36.33;;;23.98;;
33826;SDS011;20128;45.582;5.298;2023-05-23T01:48:56;37.10;;;24.27;;
33826;SDS011;20128;45.582;5.298;2023-05-23T01:51:22;38.25;;;24.92;;
33826;SDS011;20128;45.582;5.298;2023-05-23T01:53:51;35.83;;;24.27;;
33826;SDS011;20128;45.582;5.298;2023-05-23T01:56:17;41.90;;;25.33;;
33826;SDS011;20128;45.582;5.298;2023-05-23T01:58:45;32.45;;;21.85;;
33826;SDS011;20128;45.582;5.298;2023-05-23T02:01:11;37.45;;;26.27;;
33826;SDS011;20128;45.582;5.298;2023-05-23T02:03:37;31.30;;;22.67;;
33826;SDS011;20128;45.582;5.298;2023-05-23T02:06:03;34.97;;;23.83;;
33826;SDS011;20128;45.582;5.298;2023-05-23T02:08:28;38.28;;;25.42;;
33826;SDS011;20128;45.582;5.298;2023-05-23T02:10:54;42.90;;;27.02;;
33826;SDS011;20128;45.582;5.298;2023-05-23T02:13:20;37.30;;;26.23;;
33826;SDS011;20128;45.582;5.298;2023-05-23T02:15:45;37.25;;;26.83;;
33826;SDS011;20128;45.582;5.298;2023-05-23T02:18:11;38.10;;;26.08;;
33826;SDS011;20128;45.582;5.298;2023-05-23T02:20:37;36.65;;;26.30;;
33826;SDS011;20128;45.582;5.298;2023-05-23T02:23:02;34.80;;;25.15;;
33826;SDS011;20128;45.582;5.298;2023-05-23T02:25:28;37.47;;;25.77;;
33826;SDS011;20128;45.582;5.298;2023-05-23T02:27:54;44.40;;;26.42;;
33826;SDS011;20128;45.582;5.298;2023-05-23T02:30:19;39.97;;;26.80;;
33826;SDS011;20128;45.582;5.298;2023-05-23T02:32:45;33.55;;;25.17;;
33826;SDS011;20128;45.582;5.298;2023-05-23T02:35:12;37.20;;;26.48;;
33826;SDS011;20128;45.582;5.298;2023-05-23T02:37:37;36.05;;;23.80;;
33826;SDS011;20128;45.582;5.298;2023-05-23T02:40:04;37.40;;;25.45;;
33826;SDS011;20128;45.582;5.298;2023-05-23T02:42:31;43.03;;;26.27;;
33826;SDS011;20128;45.582;5.298;2023-05-23T02:44:57;41.67;;;25.42;;
33826;SDS011;20128;45.582;5.298;2023-05-23T02:47:23;35.03;;;24.75;;
33826;SDS011;20128;45.582;5.298;2023-05-23T02:49:49;38.90;;;26.30;;
33826;SDS011;20128;45.582;5.298;2023-05-23T02:52:14;37.97;;;26.48;;
33826;SDS011;20128;45.582;5.298;2023-05-23T02:54:41;40.38;;;25.25;;
33826;SDS011;20128;45.582;5.298;2023-05-23T02:57:06;35.65;;;23.23;;
33826;SDS011;20128;45.582;5.298;2023-05-23T02:59:32;34.05;;;24.92;;
33826;SDS011;20128;45.582;5.298;2023-05-23T03:01:58;36.90;;;23.52;;
33826;SDS011;20128;45.582;5.298;2023-05-23T03:04:23;35.13;;;25.50;;
33826;SDS011;20128;45.582;5.298;2023-05-23T03:06:49;42.60;;;27.77;;
33826;SDS011;20128;45.582;5.298;2023-05-23T03:09:18;38.88;;;28.08;;
33826;SDS011;20128;45.582;5.298;2023-05-23T03:11:44;42.22;;;26.95;;
33826;SDS011;20128;45.582;5.298;2023-05-23T03:14:10;34.50;;;24.73;;
33826;SDS011;20128;45.582;5.298;2023-05-23T03:16:36;41.05;;;28.17;;
33826;SDS011;20128;45.582;5.298;2023-05-23T03:19:01;40.50;;;26.27;;
33826;SDS011;20128;45.582;5.298;2023-05-23T03:21:28;40.00;;;27.77;;
33826;SDS011;20128;45.582;5.298;2023-05-23T03:23:55;38.13;;;26.88;;
33826;SDS011;20128;45.582;5.298;2023-05-23T03:26:20;44.88;;;29.52;;
33826;SDS011;20128;45.582;5.298;2023-05-23T03:28:47;38.15;;;26.92;;
33826;SDS011;20128;45.582;5.298;2023-05-23T03:31:13;42.63;;;27.75;;
33826;SDS011;20128;45.582;5.298;2023-05-23T03:33:39;38.58;;;26.98;;
33826;SDS011;20128;45.582;5.298;2023-05-23T03:36:04;41.92;;;28.88;;
33826;SDS011;20128;45.582;5.298;2023-05-23T03:38:30;41.42;;;28.70;;
33826;SDS011;20128;45.582;5.298;2023-05-23T03:40:56;43.08;;;28.75;;
33826;SDS011;20128;45.582;5.298;2023-05-23T03:43:22;47.83;;;29.63;;
33826;SDS011;20128;45.582;5.298;2023-05-23T03:45:47;42.63;;;27.05;;
33826;SDS011;20128;45.582;5.298;2023-05-23T03:48:13;41.92;;;29.13;;
33826;SDS011;20128;45.582;5.298;2023-05-23T03:50:39;40.22;;;28.92;;
33826;SDS011;20128;45.582;5.298;2023-05-23T03:53:05;43.72;;;29.58;;
33826;SDS011;20128;45.582;5.298;2023-05-23T03:55:31;38.17;;;26.67;;
33826;SDS011;20128;45.582;5.298;2023-05-23T03:57:57;40.67;;;28.42;;
33826;SDS011;20128;45.582;5.298;2023-05-23T04:00:22;47.45;;;29.83;;
33826;SDS011;20128;45.582;5.298;2023-05-23T04:02:48;45.00;;;28.33;;
33826;SDS011;20128;45.582;5.298;2023-05-23T04:05:15;41.90;;;30.27;;
33826;SDS011;20128;45.582;5.298;2023-05-23T04:07:41;40.05;;;28.15;;
33826;SDS011;20128;45.582;5.298;2023-05-23T04:10:07;34.40;;;25.48;;
33826;SDS011;20128;45.582;5.298;2023-05-23T04:12:34;39.10;;;28.02;;
33826;SDS011;20128;45.582;5.298;2023-05-23T04:15:00;41.58;;;29.52;;
33826;SDS011;20128;45.582;5.298;2023-05-23T04:17:26;43.20;;;28.77;;
33826;SDS011;20128;45.582;5.298;2023-05-23T04:19:53;41.15;;;25.45;;
33826;SDS011;20128;45.582;5.298;2023-05-23T04:22:19;41.92;;;28.38;;
33826;SDS011;20128;45.582;5.298;2023-05-23T04:24:45;43.67;;;28.33;;
33826;SDS011;20128;45.582;5.298;2023-05-23T04:27:10;36.83;;;26.42;;
33826;SDS011;20128;45.582;5.298;2023-05-23T04:29:37;41.38;;;27.92;;
33826;SDS011;20128;45.582;5.298;2023-05-23T04:32:03;47.90;;;29.65;;
33826;SDS011;20128;45.582;5.298;2023-05-23T04:34:30;49.15;;;30.98;;
33826;SDS011;20128;45.582;5.298;2023-05-23T04:36:58;47.00;;;31.67;;
33826;SDS011;20128;45.582;5.298;2023-05-23T04:39:27;46.25;;;30.70;;
33826;SDS011;20128;45.582;5.298;2023-05-23T04:41:53;36.53;;;25.50;;
33826;SDS011;20128;45.582;5.298;2023-05-23T04:44:20;42.50;;;30.48;;
33826;SDS011;20128;45.582;5.298;2023-05-23T04:46:46;43.53;;;29.60;;
33826;SDS011;20128;45.582;5.298;2023-05-23T04:49:12;35.67;;;25.63;;
33826;SDS011;20128;45.582;5.298;2023-05-23T04:51:38;55.17;;;32.85;;
33826;SDS011;20128;45.582;5.298;2023-05-23T04:54:04;55.42;;;31.73;;
33826;SDS011;20128;45.582;5.298;2023-05-23T04:56:29;40.47;;;28.00;;
33826;SDS011;20128;45.582;5.298;2023-05-23T04:58:56;48.95;;;32.42;;
33826;SDS011;20128;45.582;5.298;2023-05-23T05:01:22;51.10;;;32.80;;
33826;SDS011;20128;45.582;5.298;2023-05-23T05:03:52;46.00;;;30.73;;
33826;SDS011;20128;45.582;5.298;2023-05-23T05:06:17;48.35;;;30.48;;
33826;SDS011;20128;45.582;5.298;2023-05-23T05:08:45;41.20;;;28.70;;
33826;SDS011;20128;45.582;5.298;2023-05-23T05:11:10;51.83;;;31.45;;
33826;SDS011;20128;45.582;5.298;2023-05-23T05:13:36;52.80;;;31.25;;
33826;SDS011;20128;45.582;5.298;2023-05-23T05:16:01;43.17;;;29.48;;
33826;SDS011;20128;45.582;5.298;2023-05-23T05:18:27;43.63;;;27.05;;
33826;SDS011;20128;45.582;5.298;2023-05-23T05:20:53;47.17;;;29.48;;
33826;SDS011;20128;45.582;5.298;2023-05-23T05:23:20;54.22;;;33.58;;
33826;SDS011;20128;45.582;5.298;2023-05-23T05:25:49;43.80;;;29.98;;
33826;SDS011;20128;45.582;5.298;2023-05-23T05:28:15;51.83;;;31.70;;
33826;SDS011;20128;45.582;5.298;2023-05-23T05:30:40;50.47;;;31.33;;
33826;SDS011;20128;45.582;5.298;2023-05-23T05:33:06;47.80;;;29.08;;
33826;SDS011;20128;45.582;5.298;2023-05-23T05:35:33;42.80;;;27.77;;
33826;SDS011;20128;45.582;5.298;2023-05-23T05:37:59;51.83;;;31.30;;
33826;SDS011;20128;45.582;5.298;2023-05-23T05:40:25;44.67;;;30.88;;
33826;SDS011;20128;45.582;5.298;2023-05-23T05:42:51;47.58;;;31.08;;
33826;SDS011;20128;45.582;5.298;2023-05-23T05:45:17;49.55;;;32.55;;
33826;SDS011;20128;45.582;5.298;2023-05-23T05:47:43;53.33;;;32.00;;
33826;SDS011;20128;45.582;5.298;2023-05-23T05:50:09;50.97;;;32.72;;
33826;SDS011;20128;45.582;5.298;2023-05-23T05:52:35;52.13;;;32.00;;
33826;SDS011;20128;45.582;5.298;2023-05-23T05:55:07;51.13;;;33.13;;
33826;SDS011;20128;45.582;5.298;2023-05-23T05:57:39;59.97;;;36.17;;
33826;SDS011;20128;45.582;5.298;2023-05-23T06:00:09;53.33;;;35.38;;
33826;SDS011;20128;45.582;5.298;2023-05-23T06:02:42;51.97;;;33.70;;
33826;SDS011;20128;45.582;5.298;2023-05-23T06:05:09;55.95;;;34.15;;
33826;SDS011;20128;45.582;5.298;2023-05-23T06:07:39;58.50;;;34.58;;
33826;SDS011;20128;45.582;5.298;2023-05-23T06:10:05;49.40;;;32.28;;
33826;SDS011;20128;45.582;5.298;2023-05-23T06:12:32;59.22;;;34.30;;
33826;SDS011;20128;45.582;5.298;2023-05-23T06:14:57;57.05;;;34.80;;
33826;SDS011;20128;45.582;5.298;2023-05-23T06:17:23;55.50;;;34.03;;
33826;SDS011;20128;45.582;5.298;2023-05-23T06:19:49;54.33;;;32.97;;
33826;SDS011;20128;45.582;5.298;2023-05-23T06:22:15;54.40;;;34.55;;
33826;SDS011;20128;45.582;5.298;2023-05-23T06:24:41;58.55;;;35.00;;
33826;SDS011;20128;45.582;5.298;2023-05-23T06:27:06;54.22;;;33.30;;
33826;SDS011;20128;45.582;5.298;2023-05-23T06:29:32;58.30;;;35.08;;
33826;SDS011;20128;45.582;5.298;2023-05-23T06:31:59;53.67;;;33.83;;
33826;SDS011;20128;45.582;5.298;2023-05-23T06:34:25;57.47;;;34.85;;
33826;SDS011;20128;45.582;5.298;2023-05-23T06:36:51;49.80;;;32.13;;
33826;SDS011;20128;45.582;5.298;2023-05-23T06:39:16;57.85;;;34.53;;
33826;SDS011;20128;45.582;5.298;2023-05-23T06:41:42;53.30;;;33.80;;
33826;SDS011;20128;45.582;5.298;2023-05-23T06:44:08;58.15;;;32.95;;
33826;SDS011;20128;45.582;5.298;2023-05-23T06:46:33;54.80;;;31.23;;
33826;SDS011;20128;45.582;5.298;2023-05-23T06:48:59;46.17;;;27.73;;
33826;SDS011;20128;45.582;5.298;2023-05-23T06:51:25;62.92;;;32.45;;
33826;SDS011;20128;45.582;5.298;2023-05-23T06:53:50;49.83;;;29.90;;
33826;SDS011;20128;45.582;5.298;2023-05-23T06:56:16;54.15;;;31.63;;
33826;SDS011;20128;45.582;5.298;2023-05-23T06:58:41;55.38;;;33.25;;
33826;SDS011;20128;45.582;5.298;2023-05-23T07:01:07;52.53;;;31.02;;
33826;SDS011;20128;45.582;5.298;2023-05-23T07:03:34;56.90;;;32.75;;
33826;SDS011;20128;45.582;5.298;2023-05-23T07:06:02;53.97;;;33.35;;
33826;SDS011;20128;45.582;5.298;2023-05-23T07:08:28;56.03;;;33.10;;
33826;SDS011;20128;45.582;5.298;2023-05-23T07:10:54;59.95;;;33.92;;
33826;SDS011;20128;45.582;5.298;2023-05-23T07:13:19;52.40;;;30.45;;
33826;SDS011;20128;45.582;5.298;2023-05-23T07:15:45;56.70;;;32.53;;
33826;SDS011;20128;45.582;5.298;2023-05-23T07:18:10;52.97;;;30.85;;
33826;SDS011;20128;45.582;5.298;2023-05-23T07:20:36;56.40;;;32.75;;
33826;SDS011;20128;45.582;5.298;2023-05-23T07:23:02;48.67;;;28.90;;
33826;SDS011;20128;45.582;5.298;2023-05-23T07:25:28;52.97;;;32.97;;
33826;SDS011;20128;45.582;5.298;2023-05-23T07:27:53;54.75;;;33.22;;
33826;SDS011;20128;45.582;5.298;2023-05-23T07:30:20;66.15;;;33.28;;
33826;SDS011;20128;45.582;5.298;2023-05-23T07:32:46;54.47;;;32.58;;
33826;SDS011;20128;45.582;5.298;2023-05-23T07:35:13;64.95;;;32.38;;
33826;SDS011;20128;45.582;5.298;2023-05-23T07:37:39;52.10;;;31.08;;
33826;SDS011;20128;45.582;5.298;2023-05-23T07:40:05;53.78;;;31.23;;
33826;SDS011;20128;45.582;5.298;2023-05-23T07:42:34;48.03;;;29.13;;
33826;SDS011;20128;45.582;5.298;2023-05-23T07:45:01;48.92;;;30.13;;
33826;SDS011;20128;45.582;5.298;2023-05-23T07:47:27;45.85;;;29.33;;
33826;SDS011;20128;45.582;5.298;2023-05-23T07:49:53;49.17;;;29.45;;
33826;SDS011;20128;45.582;5.298;2023-05-23T07:52:18;48.83;;;28.95;;
33826;SDS011;20128;45.582;5.298;2023-05-23T07:54:44;52.28;;;30.00;;
33826;SDS011;20128;45.582;5.298;2023-05-23T07:57:10;47.45;;;28.02;;
33826;SDS011;20128;45.582;5.298;2023-05-23T07:59:36;50.25;;;28.30;;
33826;SDS011;20128;45.582;5.298;2023-05-23T08:02:02;48.50;;;28.17;;
33826;SDS011;20128;45.582;5.298;2023-05-23T08:04:28;49.42;;;26.33;;
33826;SDS011;20128;45.582;5.298;2023-05-23T08:06:55;48.35;;;29.88;;
33826;SDS011;20128;45.582;5.298;2023-05-23T08:09:21;52.38;;;30.20;;
33826;SDS011;20128;45.582;5.298;2023-05-23T08:11:47;61.50;;;34.25;;
33826;SDS011;20128;45.582;5.298;2023-05-23T08:14:13;52.63;;;31.15;;
33826;SDS011;20128;45.582;5.298;2023-05-23T08:16:39;59.85;;;31.65;;
33826;SDS011;20128;45.582;5.298;2023-05-23T08:19:05;53.28;;;31.20;;
33826;SDS011;20128;45.582;5.298;2023-05-23T08:21:31;57.47;;;32.05;;
33826;SDS011;20128;45.582;5.298;2023-05-23T08:23:56;61.13;;;31.38;;
33826;SDS011;20128;45.582;5.298;2023-05-23T08:26:22;56.15;;;32.47;;
33826;SDS011;20128;45.582;5.298;2023-05-23T08:28:48;56.75;;;32.97;;
33826;SDS011;20128;45.582;5.298;2023-05-23T08:31:14;50.00;;;31.13;;
33826;SDS011;20128;45.582;5.298;2023-05-23T08:33:40;57.85;;;30.80;;
33826;SDS011;20128;45.582;5.298;2023-05-23T08:36:05;54.42;;;32.15;;
33826;SDS011;20128;45.582;5.298;2023-05-23T08:38:31;60.70;;;32.95;;
33826;SDS011;20128;45.582;5.298;2023-05-23T08:40:57;53.33;;;25.67;;
33826;SDS011;20128;45.582;5.298;2023-05-23T08:43:25;56.83;;;31.73;;
33826;SDS011;20128;45.582;5.298;2023-05-23T08:45:51;63.95;;;32.92;;
33826;SDS011;20128;45.582;5.298;2023-05-23T08:48:19;51.58;;;30.92;;
33826;SDS011;20128;45.582;5.298;2023-05-23T08:50:45;59.15;;;29.85;;
33826;SDS011;20128;45.582;5.298;2023-05-23T08:53:15;52.95;;;32.50;;
33826;SDS011;20128;45.582;5.298;2023-05-23T08:55:44;53.25;;;29.05;;
33826;SDS011;20128;45.582;5.298;2023-05-23T08:58:12;49.50;;;28.88;;
33826;SDS011;20128;45.582;5.298;2023-05-23T09:00:38;47.35;;;27.00;;
33826;SDS011;20128;45.582;5.298;2023-05-23T09:03:04;63.15;;;31.42;;
33826;SDS011;20128;45.582;5.298;2023-05-23T09:05:30;58.38;;;31.80;;
33826;SDS011;20128;45.582;5.298;2023-05-23T09:07:56;55.28;;;30.75;;
33826;SDS011;20128;45.582;5.298;2023-05-23T09:10:21;52.58;;;30.95;;
33826;SDS011;20128;45.582;5.298;2023-05-23T09:12:47;51.22;;;28.92;;
33826;SDS011;20128;45.582;5.298;2023-05-23T09:15:13;46.22;;;29.75;;
33826;SDS011;20128;45.582;5.298;2023-05-23T09:17:40;54.13;;;29.33;;
33826;SDS011;20128;45.582;5.298;2023-05-23T09:20:13;49.88;;;29.88;;
33826;SDS011;20128;45.582;5.298;2023-05-23T09:25:10;46.00;;;27.17;;
33826;SDS011;20128;45.582;5.298;2023-05-23T09:27:35;51.67;;;29.45;;
33826;SDS011;20128;45.582;5.298;2023-05-23T09:30:08;43.20;;;27.23;;
33826;SDS011;20128;45.582;5.298;2023-05-23T09:32:35;54.08;;;30.67;;
33826;SDS011;20128;45.582;5.298;2023-05-23T09:35:01;51.20;;;30.40;;
33826;SDS011;20128;45.582;5.298;2023-05-23T09:37:35;53.13;;;29.27;;
33826;SDS011;20128;45.582;5.298;2023-05-23T09:40:10;48.42;;;29.83;;
33826;SDS011;20128;45.582;5.298;2023-05-23T09:42:45;55.55;;;30.25;;
33826;SDS011;20128;45.582;5.298;2023-05-23T09:45:11;50.20;;;30.10;;
33826;SDS011;20128;45.582;5.298;2023-05-23T09:47:38;47.22;;;29.85;;
33826;SDS011;20128;45.582;5.298;2023-05-23T09:50:12;59.55;;;31.63;;
33826;SDS011;20128;45.582;5.298;2023-05-23T09:52:38;49.20;;;29.50;;
33826;SDS011;20128;45.582;5.298;2023-05-23T09:55:04;55.45;;;30.42;;
33826;SDS011;20128;45.582;5.298;2023-05-23T09:57:30;51.58;;;30.65;;
33826;SDS011;20128;45.582;5.298;2023-05-23T10:00:01;54.90;;;32.50;;
33826;SDS011;20128;45.582;5.298;2023-05-23T10:08:04;62.70;;;34.67;;
33826;SDS011;20128;45.582;5.298;2023-05-23T10:10:32;65.63;;;33.90;;
33826;SDS011;20128;45.582;5.298;2023-05-23T10:13:02;68.65;;;35.40;;
33826;SDS011;20128;45.582;5.298;2023-05-23T10:15:32;61.22;;;34.28;;
33826;SDS011;20128;45.582;5.298;2023-05-23T10:20:33;64.43;;;34.40;;
33826;SDS011;20128;45.582;5.298;2023-05-23T10:23:03;65.38;;;34.33;;
33826;SDS011;20128;45.582;5.298;2023-05-23T10:25:29;63.83;;;33.42;;
33826;SDS011;20128;45.582;5.298;2023-05-23T10:27:56;70.70;;;35.42;;
33826;SDS011;20128;45.582;5.298;2023-05-23T10:30:26;70.05;;;35.40;;
33826;SDS011;20128;45.582;5.298;2023-05-23T10:32:55;71.82;;;35.47;;
33826;SDS011;20128;45.582;5.298;2023-05-23T10:38:12;64.40;;;35.13;;
33826;SDS011;20128;45.582;5.298;2023-05-23T10:40:47;71.10;;;34.95;;
33826;SDS011;20128;45.582;5.298;2023-05-23T10:43:39;66.90;;;35.80;;
33826;SDS011;20128;45.582;5.298;2023-05-23T10:46:18;70.13;;;37.70;;
33826;SDS011;20128;45.582;5.298;2023-05-23T10:48:45;71.22;;;34.88;;
33826;SDS011;20128;45.582;5.298;2023-05-23T10:51:13;78.75;;;37.22;;
33826;SDS011;20128;45.582;5.298;2023-05-23T10:53:43;79.05;;;36.50;;
33826;SDS011;20128;45.582;5.298;2023-05-23T10:56:18;68.40;;;34.38;;
33826;SDS011;20128;45.582;5.298;2023-05-23T10:58:51;67.35;;;33.65;;
33826;SDS011;20128;45.582;5.298;2023-05-23T11:01:20;58.17;;;33.38;;
33826;SDS011;20128;45.582;5.298;2023-05-23T11:17:47;59.75;;;33.38;;
33826;SDS011;20128;45.582;5.298;2023-05-23T11:19:55;80.85;;;35.85;;
33826;SDS011;20128;45.582;5.298;2023-05-23T11:22:28;74.25;;;35.30;;
33826;SDS011;20128;45.582;5.298;2023-05-23T11:24:56;83.75;;;37.20;;
33826;SDS011;20128;45.582;5.298;2023-05-23T11:32:33;70.60;;;36.33;;
33826;SDS011;20128;45.582;5.298;2023-05-23T11:35:03;63.45;;;33.92;;
33826;SDS011;20128;45.582;5.298;2023-05-23T11:37:30;68.35;;;34.42;;
33826;SDS011;20128;45.582;5.298;2023-05-23T11:39:56;67.20;;;33.65;;
33826;SDS011;20128;45.582;5.298;2023-05-23T11:42:22;68.88;;;35.28;;
33826;SDS011;20128;45.582;5.298;2023-05-23T11:44:49;58.50;;;31.85;;
33826;SDS011;20128;45.582;5.298;2023-05-23T11:47:16;61.25;;;34.55;;
33826;SDS011;20128;45.582;5.298;2023-05-23T11:49:43;55.00;;;31.25;;
33826;SDS011;20128;45.582;5.298;2023-05-23T11:52:13;65.00;;;34.70;;
33826;SDS011;20128;45.582;5.298;2023-05-23T11:54:42;60.60;;;32.13;;
33826;SDS011;20128;45.582;5.298;2023-05-23T11:57:08;67.10;;;33.95;;
33826;SDS011;20128;45.582;5.298;2023-05-23T11:59:34;54.42;;;30.50;;
33826;SDS011;20128;45.582;5.298;2023-05-23T12:02:01;60.63;;;32.95;;
33826;SDS011;20128;45.582;5.298;2023-05-23T12:04:27;62.45;;;33.65;;
33826;SDS011;20128;45.582;5.298;2023-05-23T12:06:53;56.70;;;32.78;;
33826;SDS011;20128;45.582;5.298;2023-05-23T12:09:19;55.83;;;31.70;;
33826;SDS011;20128;45.582;5.298;2023-05-23T12:11:45;60.33;;;31.95;;
33826;SDS011;20128;45.582;5.298;2023-05-23T12:14:14;60.25;;;32.70;;
33826;SDS011;20128;45.582;5.298;2023-05-23T12:16:42;62.05;;;30.48;;
33826;SDS011;20128;45.582;5.298;2023-05-23T12:19:10;61.33;;;33.08;;
33826;SDS011;20128;45.582;5.298;2023-05-23T12:21:54;61.20;;;31.13;;
33826;SDS011;20128;45.582;5.298;2023-05-23T12:26:52;59.78;;;30.52;;
33826;SDS011;20128;45.582;5.298;2023-05-23T12:29:32;51.28;;;29.40;;
33826;SDS011;20128;45.582;5.298;2023-05-23T12:31:59;50.75;;;28.77;;
33826;SDS011;20128;45.582;5.298;2023-05-23T12:34:26;59.45;;;29.73;;
33826;SDS011;20128;45.582;5.298;2023-05-23T12:36:56;54.15;;;28.58;;
33826;SDS011;20128;45.582;5.298;2023-05-23T12:39:26;52.35;;;29.88;;
33826;SDS011;20128;45.582;5.298;2023-05-23T12:41:52;51.05;;;29.48;;
33826;SDS011;20128;45.582;5.298;2023-05-23T12:44:22;51.38;;;29.27;;
33826;SDS011;20128;45.582;5.298;2023-05-23T12:46:53;54.95;;;28.45;;
33826;SDS011;20128;45.582;5.298;2023-05-23T12:49:19;51.70;;;29.77;;
33826;SDS011;20128;45.582;5.298;2023-05-23T12:51:45;55.20;;;31.02;;
33826;SDS011;20128;45.582;5.298;2023-05-23T12:54:11;48.05;;;28.75;;
33826;SDS011;20128;45.582;5.298;2023-05-23T12:56:37;55.47;;;30.85;;
33826;SDS011;20128;45.582;5.298;2023-05-23T12:59:02;53.03;;;29.65;;
33826;SDS011;20128;45.582;5.298;2023-05-23T13:01:28;52.63;;;31.48;;
33826;SDS011;20128;45.582;5.298;2023-05-23T13:03:54;54.65;;;30.77;;
33826;SDS011;20128;45.582;5.298;2023-05-23T13:06:20;62.70;;;32.33;;
33826;SDS011;20128;45.582;5.298;2023-05-23T13:08:46;50.72;;;29.80;;
33826;SDS011;20128;45.582;5.298;2023-05-23T13:11:14;63.08;;;31.20;;
33826;SDS011;20128;45.582;5.298;2023-05-23T13:13:40;57.05;;;30.10;;
33826;SDS011;20128;45.582;5.298;2023-05-23T13:16:06;57.05;;;32.13;;
33826;SDS011;20128;45.582;5.298;2023-05-23T13:18:32;58.53;;;32.42;;
33826;SDS011;20128;45.582;5.298;2023-05-23T13:20:57;49.10;;;28.55;;
33826;SDS011;20128;45.582;5.298;2023-05-23T13:23:23;56.05;;;30.83;;
33826;SDS011;20128;45.582;5.298;2023-05-23T13:25:50;47.55;;;28.92;;
33826;SDS011;20128;45.582;5.298;2023-05-23T13:28:16;53.17;;;30.05;;
33826;SDS011;20128;45.582;5.298;2023-05-23T13:30:42;49.83;;;29.48;;
33826;SDS011;20128;45.582;5.298;2023-05-23T13:33:08;50.63;;;30.88;;
33826;SDS011;20128;45.582;5.298;2023-05-23T13:35:34;50.55;;;29.33;;
33826;SDS011;20128;45.582;5.298;2023-05-23T13:37:59;54.78;;;27.90;;
33826;SDS011;20128;45.582;5.298;2023-05-23T13:40:25;51.60;;;31.75;;
33826;SDS011;20128;45.582;5.298;2023-05-23T13:42:51;60.42;;;31.33;;
33826;SDS011;20128;45.582;5.298;2023-05-23T13:45:17;49.83;;;31.45;;
33826;SDS011;20128;45.582;5.298;2023-05-23T13:47:43;49.30;;;29.15;;
33826;SDS011;20128;45.582;5.298;2023-05-23T13:50:09;56.88;;;31.20;;
33826;SDS011;20128;45.582;5.298;2023-05-23T13:52:35;50.42;;;29.23;;
33826;SDS011;20128;45.582;5.298;2023-05-23T13:55:01;46.90;;;28.95;;
33826;SDS011;20128;45.582;5.298;2023-05-23T13:57:28;48.80;;;28.75;;
33826;SDS011;20128;45.582;5.298;2023-05-23T13:59:54;44.85;;;28.75;;
33826;SDS011;20128;45.582;5.298;2023-05-23T14:02:20;49.20;;;28.25;;
33826;SDS011;20128;45.582;5.298;2023-05-23T14:04:47;47.25;;;28.48;;
33826;SDS011;20128;45.582;5.298;2023-05-23T14:07:13;45.60;;;27.35;;
33826;SDS011;20128;45.582;5.298;2023-05-23T14:09:38;44.97;;;25.73;;
33826;SDS011;20128;45.582;5.298;2023-05-23T14:12:04;42.22;;;26.98;;
33826;SDS011;20128;45.582;5.298;2023-05-23T14:14:30;48.22;;;26.38;;
33826;SDS011;20128;45.582;5.298;2023-05-23T14:16:56;43.08;;;27.23;;
33826;SDS011;20128;45.582;5.298;2023-05-23T14:19:21;45.15;;;27.10;;
33826;SDS011;20128;45.582;5.298;2023-05-23T14:21:47;45.35;;;27.75;;
33826;SDS011;20128;45.582;5.298;2023-05-23T14:24:13;50.22;;;27.80;;
33826;SDS011;20128;45.582;5.298;2023-05-23T14:26:38;48.92;;;28.35;;
33826;SDS011;20128;45.582;5.298;2023-05-23T14:29:04;49.47;;;28.48;;
33826;SDS011;20128;45.582;5.298;2023-05-23T14:31:30;48.83;;;28.60;;
33826;SDS011;20128;45.582;5.298;2023-05-23T14:33:56;52.15;;;28.52;;
33826;SDS011;20128;45.582;5.298;2023-05-23T14:36:21;46.40;;;28.38;;
33826;SDS011;20128;45.582;5.298;2023-05-23T14:38:48;60.00;;;29.50;;
33826;SDS011;20128;45.582;5.298;2023-05-23T14:41:15;49.60;;;29.38;;
33826;SDS011;20128;45.582;5.298;2023-05-23T14:43:40;52.10;;;29.75;;
33826;SDS011;20128;45.582;5.298;2023-05-23T14:46:06;50.85;;;30.33;;
33826;SDS011;20128;45.582;5.298;2023-05-23T14:48:32;53.45;;;30.23;;
33826;SDS011;20128;45.582;5.298;2023-05-23T14:50:58;53.20;;;31.05;;
33826;SDS011;20128;45.582;5.298;2023-05-23T14:53:28;63.85;;;33.70;;
33826;SDS011;20128;45.582;5.298;2023-05-23T14:55:54;59.97;;;31.27;;
33826;SDS011;20128;45.582;5.298;2023-05-23T14:58:20;50.97;;;29.48;;
33826;SDS011;20128;45.582;5.298;2023-05-23T15:00:46;53.05;;;31.63;;
33826;SDS011;20128;45.582;5.298;2023-05-23T15:03:13;52.33;;;31.42;;